createdAt,value
2019-02-15T17:24:15.705Z,2.67
2019-02-15T17:26:49.361Z,5.60
2019-02-15T17:29:23.200Z,5.43
2019-02-15T17:31:56.780Z,6.17
2019-02-15T17:34:30.507Z,6.50
2019-02-15T17:37:04.159Z,6.97
2019-02-15T17:39:37.732Z,7.37
2019-02-15T17:42:12.188Z,6.43
2019-02-15T17:44:45.820Z,8.03
2019-02-15T17:47:19.506Z,6.93
2019-02-15T17:49:53.184Z,8.47
2019-02-15T17:52:26.819Z,7.53
2019-02-15T17:55:00.541Z,7.33
2019-02-15T17:57:35.021Z,7.50
2019-02-15T18:00:10.096Z,7.40
2019-02-15T18:02:43.710Z,6.97
2019-02-15T18:05:17.566Z,7.00
2019-02-15T18:07:51.321Z,6.50
2019-02-15T18:10:25.857Z,6.20
2019-02-15T18:12:59.605Z,6.23
2019-02-15T18:15:33.442Z,5.67
2019-02-15T18:18:07.342Z,6.23
2019-02-15T18:20:41.022Z,6.30
2019-02-15T18:23:15.491Z,6.70
2019-02-15T18:25:50.020Z,7.10
2019-02-15T18:28:23.712Z,6.70
2019-02-15T18:30:57.424Z,7.97
2019-02-15T18:33:31.291Z,7.90
2019-02-15T18:36:05.727Z,7.80
2019-02-15T18:38:40.781Z,6.77
2019-02-15T18:41:13.855Z,7.30
2019-02-15T18:43:47.878Z,7.53
2019-02-15T18:46:21.517Z,7.57
2019-02-15T18:48:55.205Z,7.70
2019-02-15T18:51:29.085Z,7.00
2019-02-15T18:54:02.700Z,7.40
2019-02-15T18:56:37.430Z,8.20
2019-02-15T18:59:11.013Z,8.33
2019-02-15T19:01:44.824Z,7.33
2019-02-15T19:04:18.573Z,8.83
2019-02-15T19:06:52.365Z,7.67
2019-02-15T19:09:26.012Z,6.47
2019-02-15T19:12:00.477Z,5.80
2019-02-15T19:14:35.098Z,7.00
2019-02-15T19:17:08.829Z,6.97
2019-02-15T19:19:42.637Z,7.00
2019-02-15T19:22:16.214Z,7.20
2019-02-15T19:24:49.906Z,7.73
2019-02-15T19:27:23.803Z,7.20
2019-02-15T19:29:57.586Z,6.83
2019-02-15T19:32:31.270Z,7.23
2019-02-15T19:35:04.959Z,6.77
2019-02-15T19:37:38.657Z,7.27
2019-02-15T19:40:13.155Z,6.80
2019-02-15T19:42:46.901Z,6.67
2019-02-15T19:45:20.685Z,6.80
2019-02-15T19:47:54.397Z,7.07
2019-02-15T19:50:28.893Z,6.80
2019-02-15T19:53:03.495Z,7.40
2019-02-15T19:55:37.176Z,7.00
2019-02-15T19:58:11.748Z,6.87
2019-02-15T20:00:45.477Z,7.00
2019-02-15T20:03:19.329Z,6.80
2019-02-15T20:05:53.107Z,6.43
2019-02-15T20:08:27.705Z,6.33
2019-02-15T20:11:01.537Z,6.43
2019-02-15T20:13:35.200Z,6.67
2019-02-15T20:16:09.093Z,7.00
2019-02-15T20:18:42.910Z,6.43
2019-02-15T20:21:17.536Z,8.17
2019-02-15T20:23:51.276Z,7.87
2019-02-15T20:26:25.068Z,10.07
2019-02-15T20:28:58.729Z,8.37
2019-02-15T20:31:32.494Z,9.40
2019-02-15T20:34:06.384Z,7.87
2019-02-15T20:36:41.045Z,7.53
2019-02-15T20:39:14.717Z,8.43
2019-02-15T20:41:48.479Z,7.60
2019-02-15T20:44:22.936Z,7.07
2019-02-15T20:46:56.649Z,7.10
2019-02-15T20:49:30.316Z,7.03
2019-02-15T20:52:04.017Z,6.67
2019-02-15T20:54:37.897Z,6.80
2019-02-15T20:57:12.493Z,6.97
2019-02-15T20:59:46.215Z,6.60
2019-02-15T21:02:20.702Z,6.97
2019-02-15T21:04:54.390Z,7.07
2019-02-15T21:07:28.105Z,6.47
2019-02-15T21:10:02.736Z,7.00
2019-02-15T21:12:36.446Z,6.90
2019-02-15T21:15:10.184Z,7.03
2019-02-15T21:17:43.888Z,6.43
2019-02-15T21:20:17.587Z,7.40
2019-02-15T21:22:51.469Z,7.53
2019-02-15T21:25:27.692Z,7.63
2019-02-15T21:27:59.594Z,7.10
2019-02-15T21:30:33.317Z,7.63
2019-02-15T21:33:08.002Z,7.57
2019-02-15T21:35:41.752Z,7.47
2019-02-15T21:38:15.557Z,6.90
2019-02-15T21:40:49.364Z,6.77
2019-02-15T21:43:23.190Z,6.57
2019-02-15T21:45:56.747Z,7.03
2019-02-15T21:48:31.347Z,6.63
2019-02-15T21:51:05.201Z,7.57
2019-02-15T21:53:38.887Z,7.17
2019-02-15T21:56:12.708Z,6.93
2019-02-15T21:58:46.585Z,7.17
2019-02-15T22:01:21.117Z,6.07
2019-02-15T22:03:55.652Z,5.77
2019-02-15T22:06:29.459Z,6.27
2019-02-15T22:09:03.967Z,6.23
2019-02-15T22:11:37.676Z,5.93
2019-02-15T22:14:11.545Z,6.57
2019-02-15T22:16:45.295Z,6.27
2019-02-15T22:19:19.057Z,6.50
2019-02-15T22:21:52.758Z,5.93
2019-02-15T22:24:27.420Z,6.47
2019-02-15T22:27:01.113Z,6.00
2019-02-15T22:29:34.813Z,5.87
2019-02-15T22:32:08.597Z,6.30
2019-02-15T22:34:42.370Z,5.80
2019-02-15T22:37:16.857Z,6.10
2019-02-15T22:39:50.589Z,5.60
2019-02-15T22:42:25.000Z,6.27
2019-02-15T22:44:58.729Z,5.87
2019-02-15T22:47:32.489Z,6.07
2019-02-15T22:50:06.245Z,5.67
2019-02-15T22:52:40.684Z,6.10
2019-02-15T22:55:14.553Z,5.67
2019-02-15T22:57:48.305Z,6.00
2019-02-15T23:00:36.233Z,5.13
2019-02-15T23:03:11.933Z,6.30
2019-02-15T23:05:45.704Z,5.90
2019-02-15T23:08:19.608Z,5.57
2019-02-15T23:10:53.501Z,5.60
2019-02-15T23:13:27.990Z,5.83
2019-02-15T23:16:01.679Z,6.23
2019-02-15T23:18:35.333Z,5.70
2019-02-15T23:21:09.062Z,7.00
2019-02-15T23:23:42.906Z,5.57
2019-02-15T23:26:16.744Z,6.03
2019-02-15T23:28:51.424Z,5.37
2019-02-15T23:31:25.125Z,5.53
2019-02-15T23:33:58.977Z,5.57
2019-02-15T23:36:32.709Z,6.20
2019-02-15T23:39:06.593Z,6.20
2019-02-15T23:41:40.149Z,6.07
2019-02-15T23:44:14.066Z,7.33
2019-02-15T23:46:48.551Z,6.17
2019-02-15T23:49:22.313Z,6.33
2019-02-15T23:51:56.805Z,7.20
2019-02-15T23:54:30.614Z,7.00
2019-02-15T23:57:05.121Z,7.53
2019-02-15T23:59:39.664Z,7.63
